Time;durP1;ratioP1;P1;durP2;ratioP2;P2;SDS_P1;SDS_P2;PMS_P1;PMS_P2;Temp;Humidity;BMP_temperature;BMP_pressure;BME280_temperature;BME280_humidity;BME280_pressure;Samples;Min_cycle;Max_cycle;Signal;HPM_P1;HPM_P2
2023/07/11 00:00:50;;;;;;;;;3.00;3.00;;;;;25.36;36.54;101207.91;5076860;27;45549;-69
2023/07/11 00:03:16;;;;;;;;;3.00;3.00;;;;;25.34;36.32;101204.59;5078322;27;45316;-70
2023/07/11 00:05:41;;;;;;;;;4.33;3.33;;;;;25.25;36.31;101176.06;5076993;28;45595;-69
2023/07/11 00:08:07;;;;;;;;;4.67;3.33;;;;;25.42;36.54;101213.25;5078132;27;46235;-69
2023/07/11 00:10:32;;;;;;;;;2.00;2.00;;;;;25.41;36.72;101205.31;5078303;28;45308;-70
2023/07/11 00:12:57;;;;;;;;;4.00;4.00;;;;;25.36;37.06;101216.09;5078012;28;45689;-69
2023/07/11 00:15:23;;;;;;;;;3.67;3.67;;;;;25.28;37.11;101191.91;5078340;28;45261;-69
2023/07/11 00:17:49;;;;;;;;;2.00;2.00;;;;;25.21;37.19;101199.31;5077975;27;47083;-69
2023/07/11 00:20:16;;;;;;;;;3.00;2.00;;;;;25.13;37.27;101186.88;5059647;28;45332;-71
2023/07/11 00:22:43;;;;;;;;;4.00;3.00;;;;;25.12;37.50;101180.59;5078209;27;45550;-69
2023/07/11 00:25:09;;;;;;;;;3.00;2.33;;;;;25.18;37.70;101201.44;5078431;28;45459;-71
2023/07/11 00:27:35;;;;;;;;;3.00;1.00;;;;;25.10;37.77;101190.88;5078066;27;46516;-70
2023/07/11 00:30:01;;;;;;;;;4.33;3.00;;;;;24.71;37.80;101134.22;5078573;28;45416;-69
2023/07/11 00:32:26;;;;;;;;;3.00;3.00;;;;;25.07;37.77;101187.81;5077989;27;45388;-71
2023/07/11 00:34:52;;;;;;;;;3.33;3.33;;;;;24.86;37.76;101153.72;5078298;27;45232;-70
2023/07/11 00:37:17;;;;;;;;;3.67;3.67;;;;;24.72;38.18;101136.72;5059002;28;68216;-72
2023/07/11 00:39:43;;;;;;;;;3.00;3.00;;;;;25.02;37.87;101183.03;5077562;28;45249;-72
2023/07/11 00:42:10;;;;;;;;;4.00;4.00;;;;;25.00;38.44;101189.75;5059816;27;45324;-70
2023/07/11 00:44:58;;;;;;;;;4.67;3.67;;;;;24.95;38.73;101184.16;5059816;28;45670;-70
2023/07/11 00:47:27;;;;;;;;;4.67;3.33;;;;;24.88;38.52;101173.34;5077817;27;46454;-71
2023/07/11 00:50:08;;;;;;;;;5.67;4.00;;;;;24.88;38.44;101184.25;5059407;28;45237;-69
2023/07/11 00:52:35;;;;;;;;;4.00;3.33;;;;;24.57;39.03;101131.66;5059193;27;45416;-69
2023/07/11 00:55:08;;;;;;;;;4.00;4.00;;;;;24.85;38.69;101180.09;5078076;27;45396;-71
2023/07/11 00:57:36;;;;;;;;;2.67;2.67;;;;;24.79;39.00;101163.81;5078099;28;46507;-70
2023/07/11 01:00:04;;;;;;;;;4.00;4.00;;;;;24.43;39.10;101116.59;5077385;28;45244;-69
2023/07/11 01:02:32;;;;;;;;;2.00;2.00;;;;;24.36;39.04;101101.38;5077551;28;45514;-70
2023/07/11 01:04:59;;;;;;;;;6.00;3.33;;;;;24.61;39.08;101145.63;5077487;27;45410;-69
2023/07/11 01:07:29;;;;;;;;;4.33;2.67;;;;;24.84;38.88;101180.31;5077225;27;46543;-70
2023/07/11 01:09:54;;;;;;;;;3.67;3.67;;;;;24.82;39.10;101179.69;5077098;28;45464;-70
2023/07/11 01:12:20;;;;;;;;;3.00;3.00;;;;;24.77;38.99;101177.66;5077299;28;45297;-69
2023/07/11 01:14:48;;;;;;;;;2.00;2.00;;;;;24.70;39.20;101171.47;5077504;28;45356;-69
2023/07/11 01:17:32;;;;;;;;;3.00;2.00;;;;;24.72;39.56;101173.97;5077244;28;45860;-71
2023/07/11 01:20:00;;;;;;;;;6.00;4.00;;;;;24.55;39.76;101144.66;5076901;28;45446;-69
2023/07/11 01:22:28;;;;;;;;;3.67;3.00;;;;;24.70;39.79;101179.63;5077453;28;45326;-70
2023/07/11 01:24:56;;;;;;;;;4.67;2.00;;;;;24.61;39.90;101155.66;5059042;28;45722;-69
2023/07/11 01:27:22;;;;;;;;;3.00;3.00;;;;;24.63;39.50;101153.56;5077076;28;45608;-71
2023/07/11 01:29:53;;;;;;;;;3.33;3.33;;;;;24.72;39.68;101163.09;5077019;28;45320;-69
2023/07/11 01:32:18;;;;;;;;;3.33;3.33;;;;;24.62;39.72;101157.34;5077504;28;45186;-70
2023/07/11 01:34:44;;;;;;;;;4.00;4.00;;;;;24.61;39.72;101155.66;5077244;27;45285;-70
2023/07/11 01:37:09;;;;;;;;;2.33;2.33;;;;;24.61;39.74;101163.81;5076919;28;46891;-72
2023/07/11 01:39:35;;;;;;;;;3.00;3.00;;;;;24.67;39.61;101173.81;5076766;28;45475;-69
2023/07/11 01:42:00;;;;;;;;;3.00;3.00;;;;;24.67;40.16;101162.94;5078336;28;45234;-69
2023/07/11 01:44:26;;;;;;;;;5.00;3.67;;;;;24.55;39.88;101144.66;5080795;27;45235;-72
2023/07/11 01:46:51;;;;;;;;;2.00;2.00;;;;;24.61;40.14;101161.94;5080334;27;46465;-70
2023/07/11 01:49:17;;;;;;;;;3.00;3.00;;;;;24.63;40.25;101165.28;5080464;28;45436;-70
2023/07/11 01:51:46;;;;;;;;;4.00;3.00;;;;;24.54;39.69;101148.44;5080853;28;45323;-71
2023/07/11 01:54:12;;;;;;;;;2.00;2.00;;;;;24.40;40.21;101117.00;5062059;28;45508;-70
2023/07/11 01:56:37;;;;;;;;;2.00;2.00;;;;;24.09;40.27;101074.47;5080012;28;45662;-69
2023/07/11 01:59:03;;;;;;;;;3.00;3.00;;;;;24.46;40.45;101129.72;5061910;28;45280;-70
2023/07/11 02:01:28;;;;;;;;;3.67;3.67;;;;;24.48;40.50;101122.16;5080401;27;45772;-69
2023/07/11 02:03:53;;;;;;;;;4.33;4.00;;;;;24.21;40.48;101075.38;5080322;27;45525;-69
2023/07/11 02:06:18;;;;;;;;;3.00;3.00;;;;;24.58;40.86;101146.09;5080074;28;45435;-69
2023/07/11 02:08:44;;;;;;;;;2.67;2.00;;;;;24.41;41.36;101117.84;5061848;28;45434;-71
2023/07/11 02:11:09;;;;;;;;;3.00;3.00;;;;;24.51;41.04;101123.59;5080188;27;45354;-70
2023/07/11 02:13:35;;;;;;;;;5.67;2.33;;;;;24.53;40.78;101138.63;5080275;27;45513;-69
2023/07/11 02:16:00;;;;;;;;;2.00;2.00;;;;;24.45;41.11;101122.63;5079640;27;59420;-71
2023/07/11 02:18:25;;;;;;;;;6.00;3.33;;;;;24.52;40.63;101134.25;5080060;27;45524;-71
2023/07/11 02:20:55;;;;;;;;;5.00;4.00;;;;;24.50;40.77;101128.19;5080427;27;45376;-70
2023/07/11 02:23:21;;;;;;;;;5.00;4.00;;;;;24.41;41.01;101115.94;5062031;28;45510;-69
2023/07/11 02:25:46;;;;;;;;;2.67;2.67;;;;;24.44;41.10;101133.72;5079474;28;46393;-70
2023/07/11 02:28:11;;;;;;;;;2.67;2.67;;;;;24.31;41.53;101103.97;5080002;28;45379;-68
2023/07/11 02:30:37;;;;;;;;;3.33;3.00;;;;;24.41;40.78;101124.09;5079830;28;45300;-69
2023/07/11 02:33:03;;;;;;;;;1.00;1.00;;;;;24.40;41.10;101127.88;5080127;28;45360;-72
2023/07/11 02:35:30;;;;;;;;;3.00;2.00;;;;;24.32;41.43;101114.59;5061265;28;47409;-71
2023/07/11 02:37:55;;;;;;;;;4.00;2.33;;;;;24.28;41.41;101118.81;5061564;28;45316;-70
2023/07/11 02:40:20;;;;;;;;;4.67;3.00;;;;;24.21;41.53;101104.44;5079604;28;45203;-70
2023/07/11 02:42:46;;;;;;;;;4.00;4.00;;;;;24.19;41.75;101101.13;5079925;28;45957;-68
2023/07/11 02:45:12;;;;;;;;;4.33;3.33;;;;;24.19;42.05;101106.53;5079663;27;50023;-69
2023/07/11 02:47:37;;;;;;;;;2.67;2.00;;;;;24.16;41.76;101104.28;5079930;28;45321;-70
2023/07/11 02:50:03;;;;;;;;;3.67;2.00;;;;;24.12;41.91;101101.19;5079606;28;45490;-70
2023/07/11 02:52:29;;;;;;;;;3.33;3.00;;;;;24.08;41.56;101088.28;5079404;28;45477;-69
2023/07/11 02:54:54;;;;;;;;;2.33;2.33;;;;;24.15;41.89;101098.03;5078903;28;46630;-70
2023/07/11 02:57:19;;;;;;;;;1.00;1.00;;;;;24.06;41.88;101091.22;5060947;28;45356;-71
2023/07/11 02:59:46;;;;;;;;;2.67;2.00;;;;;24.19;42.13;101098.41;5061202;28;45362;-72
2023/07/11 03:02:11;;;;;;;;;3.00;3.00;;;;;24.15;42.02;101089.03;5079474;27;45368;-71
2023/07/11 03:04:37;;;;;;;;;2.67;2.67;;;;;24.10;41.64;101083.47;5079277;27;46382;-70
2023/07/11 03:07:02;;;;;;;;;3.33;3.33;;;;;24.16;42.16;101098.84;5079334;27;45425;-71
2023/07/11 03:09:28;;;;;;;;;3.00;1.00;;;;;24.12;42.30;101081.34;5079252;28;45380;-70
2023/07/11 03:11:53;;;;;;;;;3.33;3.33;;;;;24.09;42.18;101070.94;5080128;27;45457;-71
2023/07/11 03:14:19;;;;;;;;;3.00;3.00;;;;;23.96;42.45;101061.84;5060795;27;47785;-71
2023/07/11 03:16:49;;;;;;;;;3.67;3.33;;;;;24.00;42.43;101066.84;5079134;27;45482;-71
2023/07/11 03:19:15;;;;;;;;;3.67;3.67;;;;;24.12;42.56;101086.78;5061096;28;45416;-70
2023/07/11 03:21:40;;;;;;;;;11.33;10.67;;;;;24.07;42.43;101078.47;5079266;28;45409;-71
2023/07/11 03:24:06;;;;;;;;;6.00;6.00;;;;;24.12;42.55;101089.50;5078623;27;46655;-72
2023/07/11 03:26:31;;;;;;;;;2.33;2.00;;;;;24.09;42.92;101077.19;5078538;28;45393;-70
2023/07/11 03:28:57;;;;;;;;;3.00;3.00;;;;;24.11;42.53;101071.53;5078809;28;45263;-70
2023/07/11 03:31:22;;;;;;;;;2.67;2.33;;;;;24.14;42.72;101074.63;5060983;28;45470;-70
2023/07/11 03:33:47;;;;;;;;;3.33;3.00;;;;;24.14;42.34;101071.09;5060269;28;47481;-71
2023/07/11 03:36:13;;;;;;;;;4.00;3.00;;;;;24.11;42.63;101074.25;5060336;28;45536;-71
2023/07/11 03:38:39;;;;;;;;;6.67;5.00;;;;;23.88;42.62;101035.00;5079540;28;45450;-69
2023/07/11 03:41:04;;;;;;;;;5.67;4.33;;;;;23.91;43.03;101045.41;5078599;27;45166;-71
2023/07/11 03:43:30;;;;;;;;;5.67;3.67;;;;;24.01;42.99;101057.63;5078358;27;46432;-69
2023/07/11 03:45:55;;;;;;;;;5.67;5.67;;;;;23.81;42.94;101022.53;5078450;28;45347;-70
2023/07/11 03:48:21;;;;;;;;;4.67;4.67;;;;;23.93;43.53;101046.00;5078552;28;45500;-70
2023/07/11 03:50:46;;;;;;;;;3.33;3.33;;;;;24.02;43.21;101053.84;5060511;28;45537;-70
2023/07/11 03:53:12;;;;;;;;;4.00;3.00;;;;;24.00;43.40;101050.53;5059932;28;48678;-70
2023/07/11 03:55:37;;;;;;;;;3.33;3.33;;;;;23.94;43.36;101046.84;5078011;28;45418;-71
2023/07/11 03:58:03;;;;;;;;;3.33;3.33;;;;;23.59;43.19;100984.94;5077901;28;45356;-70
2023/07/11 04:00:28;;;;;;;;;5.67;4.67;;;;;23.99;43.20;101049.72;5078613;27;45287;-70
2023/07/11 04:02:53;;;;;;;;;4.33;4.00;;;;;23.98;43.36;101048.88;5059911;28;48434;-70
2023/07/11 04:05:19;;;;;;;;;5.67;3.67;;;;;23.61;43.81;100987.44;5077668;28;45261;-71
2023/07/11 04:07:44;;;;;;;;;4.00;4.00;;;;;24.00;43.36;101047.81;5078397;28;45486;-70
2023/07/11 04:10:12;;;;;;;;;5.33;4.00;;;;;23.89;43.27;101033.94;5078222;27;45414;-70
2023/07/11 04:12:38;;;;;;;;;3.67;3.67;;;;;23.97;43.63;101052.66;5077949;27;45544;-70
2023/07/11 04:15:05;;;;;;;;;5.00;3.00;;;;;23.90;43.50;101030.19;5077726;28;45514;-69
2023/07/11 04:17:30;;;;;;;;;4.00;4.00;;;;;23.98;43.53;101029.03;5077909;27;45893;-69
2023/07/11 04:19:55;;;;;;;;;4.33;3.00;;;;;23.77;43.72;101005.88;5059867;28;45204;-69
2023/07/11 04:22:21;;;;;;;;;5.67;4.33;;;;;23.84;43.96;101035.69;5077681;27;45510;-72
2023/07/11 04:24:46;;;;;;;;;4.67;4.00;;;;;23.92;43.41;101043.53;5077546;28;45273;-70
2023/07/11 04:27:11;;;;;;;;;7.00;3.67;;;;;23.88;43.69;101026.84;5077879;27;45304;-69
2023/07/11 04:29:37;;;;;;;;;4.00;4.00;;;;;23.95;43.43;101038.47;5060072;28;45297;-70
2023/07/11 04:32:02;;;;;;;;;4.00;4.00;;;;;24.00;43.82;101040.50;5060058;28;47598;-71
2023/07/11 04:34:28;;;;;;;;;5.67;4.33;;;;;23.90;43.67;101021.19;5077676;28;45455;-70
2023/07/11 04:36:53;;;;;;;;;5.00;5.00;;;;;23.98;43.84;101042.63;5077876;28;45307;-70
2023/07/11 04:39:18;;;;;;;;;5.00;5.00;;;;;23.97;43.70;101036.34;5077774;27;45315;-71
2023/07/11 04:41:44;;;;;;;;;6.33;4.00;;;;;23.75;44.09;100993.56;5077721;27;46686;-70
2023/07/11 04:44:09;;;;;;;;;2.33;2.33;;;;;23.51;43.96;100960.78;5077528;27;45343;-70
2023/07/11 04:46:34;;;;;;;;;5.67;5.00;;;;;23.91;43.94;101029.13;5077388;28;45454;-70
2023/07/11 04:49:00;;;;;;;;;4.33;4.33;;;;;23.77;44.33;101013.19;5077601;28;45569;-70
2023/07/11 04:51:25;;;;;;;;;3.00;3.00;;;;;23.65;43.87;100994.94;5076846;28;60325;-71
2023/07/11 04:53:50;;;;;;;;;5.00;4.00;;;;;23.57;44.42;100981.63;5076785;27;59505;-71
2023/07/11 04:56:16;;;;;;;;;4.33;4.33;;;;;23.81;44.43;101023.34;5077060;28;45283;-69
2023/07/11 04:58:41;;;;;;;;;5.67;5.00;;;;;23.73;44.20;101017.41;5078248;28;45418;-71
2023/07/11 05:01:12;;;;;;;;;4.00;4.00;;;;;23.49;44.74;100972.94;5077482;28;45486;-69
2023/07/11 05:03:38;;;;;;;;;5.67;5.33;;;;;23.83;44.17;101023.16;5077258;28;45396;-70
2023/07/11 05:06:05;;;;;;;;;6.00;6.00;;;;;23.89;44.40;101033.94;5077432;28;45447;-70
2023/07/11 05:08:31;;;;;;;;;6.33;5.33;;;;;23.87;44.06;101016.22;5077535;27;45414;-71
2023/07/11 05:11:02;;;;;;;;;7.00;6.00;;;;;23.95;44.34;101035.75;5076872;27;46324;-70
2023/07/11 05:13:29;;;;;;;;;7.67;7.67;;;;;23.92;44.17;101028.06;5076909;28;45996;-71
2023/07/11 05:16:03;;;;;;;;;5.00;5.00;;;;;23.95;43.75;101026.78;5078000;28;45508;-70
2023/07/11 05:18:29;;;;;;;;;5.00;5.00;;;;;24.01;44.15;101025.03;5080875;28;45537;-69
2023/07/11 05:20:56;;;;;;;;;6.00;4.00;;;;;24.02;43.81;101034.84;5080541;27;45334;-72
2023/07/11 05:23:27;;;;;;;;;3.67;3.67;;;;;24.02;43.58;101026.69;5080552;27;45409;-69
2023/07/11 05:25:54;;;;;;;;;5.00;5.00;;;;;24.01;43.76;101034.00;5081225;28;45422;-72
2023/07/11 05:28:19;;;;;;;;;5.00;3.00;;;;;23.97;43.54;101044.50;5081171;28;45257;-71
2023/07/11 05:30:45;;;;;;;;;3.00;3.00;;;;;24.04;43.98;101046.34;5062039;28;47897;-71
2023/07/11 05:33:10;;;;;;;;;4.00;4.00;;;;;24.09;43.61;101036.44;5062171;28;45331;-69
2023/07/11 05:35:37;;;;;;;;;5.67;4.00;;;;;24.06;43.71;101038.78;5080270;27;45816;-70
2023/07/11 05:38:03;;;;;;;;;4.67;3.33;;;;;23.92;43.59;101002.78;5080430;27;45200;-69
2023/07/11 05:40:30;;;;;;;;;3.33;1.33;;;;;23.95;43.68;101005.88;5061391;28;46507;-70
2023/07/11 05:42:56;;;;;;;;;5.33;4.00;;;;;24.16;43.58;101033.66;5080297;27;45240;-71
2023/07/11 05:45:21;;;;;;;;;5.00;5.00;;;;;24.18;43.76;101031.53;5080429;28;45714;-71
2023/07/11 05:47:46;;;;;;;;;2.33;2.33;;;;;23.87;43.35;100976.31;5080686;28;45236;-69
2023/07/11 05:50:12;;;;;;;;;5.00;3.67;;;;;23.93;43.25;100980.84;5078235;27;46391;-70
2023/07/11 05:52:37;;;;;;;;;4.67;4.00;;;;;24.22;43.80;101021.88;5079136;27;45298;-70
2023/07/11 05:55:03;;;;;;;;;5.00;4.00;;;;;24.21;43.67;101012.06;5080245;28;45410;-70
2023/07/11 05:57:28;;;;;;;;;4.67;3.33;;;;;24.32;43.77;101022.22;5080139;27;45394;-70
2023/07/11 05:59:53;;;;;;;;;3.67;3.00;;;;;24.31;43.56;101009.69;5061392;28;48980;-70
2023/07/11 06:02:19;;;;;;;;;5.33;4.33;;;;;24.43;43.64;101020.63;5079818;28;45593;-70
2023/07/11 06:04:44;;;;;;;;;7.00;5.00;;;;;24.57;43.59;100997.63;5080037;27;45380;-70
2023/07/11 06:07:10;;;;;;;;;4.67;3.00;;;;;25.36;42.28;101007.34;5079789;27;45489;-72
2023/07/11 06:09:35;;;;;;;;;3.00;3.00;;;;;26.25;40.35;101010.75;5079365;28;45742;-71
2023/07/11 06:12:01;;;;;;;;;2.33;2.33;;;;;26.81;39.13;100960.00;5061441;28;46065;-69
2023/07/11 06:14:27;;;;;;;;;4.67;4.00;;;;;27.95;36.82;101014.28;5066601;28;45445;-72
2023/07/11 06:16:52;;;;;;;;;4.00;4.00;;;;;28.74;36.06;101014.72;5079498;28;45382;-71
2023/07/11 06:19:18;;;;;;;;;2.00;2.00;;;;;29.22;34.88;100962.88;5077368;27;46796;-71
2023/07/11 06:21:44;;;;;;;;;6.00;4.00;;;;;30.15;33.46;100998.84;5078834;28;45557;-70
2023/07/11 06:24:10;;;;;;;;;5.33;3.00;;;;;30.63;32.86;100963.91;5079687;28;45262;-70
2023/07/11 06:26:35;;;;;;;;;4.00;3.00;;;;;31.55;32.00;101009.53;5079097;27;45476;-72
2023/07/11 06:29:01;;;;;;;;;4.00;3.33;;;;;32.06;30.98;101002.03;5078342;27;47433;-70
2023/07/11 06:31:26;;;;;;;;;3.00;2.33;;;;;32.61;29.37;100989.09;5079298;27;45494;-69
2023/07/11 06:33:51;;;;;;;;;2.33;2.33;;;;;32.86;29.08;100944.09;5078249;27;45412;-68
2023/07/11 06:36:17;;;;;;;;;5.00;5.00;;;;;33.19;29.16;100982.91;5079238;28;45212;-69
2023/07/11 06:38:42;;;;;;;;;3.33;3.33;;;;;33.11;29.12;100994.56;5060667;28;48826;-69
2023/07/11 06:41:08;;;;;;;;;2.33;2.33;;;;;32.83;29.07;100999.72;5077006;27;47443;-70
2023/07/11 06:43:33;;;;;;;;;3.00;3.00;;;;;32.63;29.91;100999.81;5079163;28;45358;-71
2023/07/11 06:45:59;;;;;;;;;4.00;4.00;;;;;32.27;29.91;100986.28;5079273;27;45580;-69
2023/07/11 06:48:28;;;;;;;;;4.00;3.67;;;;;32.12;29.91;100994.56;5078698;27;46395;-69
2023/07/11 06:50:56;;;;;;;;;5.50;4.50;;;;;31.96;30.27;100985.53;5077461;27;45597;-71
2023/07/11 06:53:23;;;;;;;;;3.00;2.33;;;;;31.55;30.39;100951.81;5076530;28;45433;-70
2023/07/11 06:55:51;;;;;;;;;2.00;2.00;;;;;31.61;30.82;100974.63;5075674;28;45625;-69
2023/07/11 06:58:17;;;;;;;;;3.33;3.33;;;;;31.52;30.71;100985.38;5069781;28;45314;-70
2023/07/11 07:00:43;;;;;;;;;8.00;5.00;;;;;31.44;31.04;100988.69;5077856;28;45271;-70
2023/07/11 07:03:13;;;;;;;;;3.00;2.00;;;;;31.27;31.75;100977.97;5077713;28;45293;-69
2023/07/11 07:05:49;;;;;;;;;6.00;3.00;;;;;30.94;31.31;100934.56;5078984;27;45382;-70
2023/07/11 07:08:15;;;;;;;;;3.00;1.67;;;;;31.17;31.12;100989.78;5077084;27;46218;-71
2023/07/11 07:10:40;;;;;;;;;3.33;2.00;;;;;30.99;31.44;100960.09;5059463;28;46093;-70
2023/07/11 07:13:05;;;;;;;;;4.00;3.00;;;;;31.05;31.59;100989.22;5078841;27;45433;-70
2023/07/11 07:15:31;;;;;;;;;4.00;4.00;;;;;31.00;32.16;100969.16;5078585;28;45283;-69
2023/07/11 07:17:56;;;;;;;;;6.00;4.33;;;;;31.06;31.87;100984.56;5087912;27;45756;-71
2023/07/11 07:20:21;;;;;;;;;5.33;4.33;;;;;31.05;31.60;100983.72;5098784;27;45430;-71
2023/07/11 07:22:47;;;;;;;;;4.33;3.00;;;;;31.05;32.43;100983.72;5098491;27;45379;-70
2023/07/11 07:25:13;;;;;;;;;3.00;3.00;;;;;31.00;31.64;100972.72;5098860;27;45402;-71
2023/07/11 07:27:38;;;;;;;;;3.00;3.00;;;;;31.05;31.92;100978.25;5061969;28;47631;-70
2023/07/11 07:30:04;;;;;;;;;5.33;4.33;;;;;31.04;31.65;100971.09;5078012;28;45477;-72
2023/07/11 07:32:29;;;;;;;;;4.00;4.00;;;;;31.07;31.59;100984.28;5078089;27;45453;-71
2023/07/11 07:34:54;;;;;;;;;4.00;4.00;;;;;31.07;32.04;100969.72;5076615;27;45245;-71
2023/07/11 07:37:20;;;;;;;;;3.67;3.00;;;;;31.03;31.88;100954.88;5059336;28;47142;-69
2023/07/11 07:39:45;;;;;;;;;5.00;3.00;;;;;31.13;31.75;100966.69;5075770;28;45298;-71
2023/07/11 07:42:10;;;;;;;;;4.00;4.00;;;;;31.10;31.49;100959.00;5078125;27;45347;-70
2023/07/11 07:44:36;;;;;;;;;4.33;3.67;;;;;31.08;32.22;100963.97;5060535;28;45454;-71
2023/07/11 07:47:01;;;;;;;;;5.00;5.00;;;;;31.15;31.61;100963.66;5054077;27;47468;-70
2023/07/11 07:49:27;;;;;;;;;4.67;3.67;;;;;31.03;31.53;100935.66;5078256;27;45570;-72
2023/07/11 07:51:53;;;;;;;;;4.00;4.00;;;;;31.01;31.19;100932.34;5058379;28;45376;-72
2023/07/11 07:54:19;;;;;;;;;5.33;3.67;;;;;31.17;31.38;100956.00;5077886;27;45502;-72
2023/07/11 07:56:44;;;;;;;;;3.00;3.00;;;;;31.09;31.77;100938.13;5077285;28;45985;-72
2023/07/11 07:59:09;;;;;;;;;2.00;2.00;;;;;31.18;31.28;100944.75;5077920;27;45499;-82
2023/07/11 08:01:35;;;;;;;;;4.00;3.33;;;;;31.11;31.79;100922.22;5078195;27;45575;-77
2023/07/11 08:04:00;;;;;;;;;3.00;3.00;;;;;31.17;31.31;100945.84;5065482;28;45488;-73
2023/07/11 08:06:25;;;;;;;;;3.00;3.00;;;;;31.18;31.35;100935.69;5061014;28;48506;-76
2023/07/11 08:08:51;;;;;;;;;3.00;3.00;;;;;31.25;31.02;100952.72;5077279;27;45388;-73
2023/07/11 08:11:19;;;;;;;;;2.00;2.00;;;;;31.26;31.56;100942.56;5078201;28;45373;-71
2023/07/11 08:13:45;;;;;;;;;3.33;3.33;;;;;31.30;30.85;100932.66;5057608;28;45762;-70
2023/07/11 08:16:10;;;;;;;;;2.00;2.00;;;;;31.27;31.23;100922.22;5077319;28;46866;-71
2023/07/11 08:18:36;;;;;;;;;2.33;2.33;;;;;31.26;31.28;100920.56;5057252;28;45378;-70
2023/07/11 08:21:01;;;;;;;;;2.67;2.67;;;;;31.26;31.89;100931.56;5076032;28;46336;-71
2023/07/11 08:23:27;;;;;;;;;3.00;3.00;;;;;31.20;31.35;100906.00;5078037;27;45201;-69
2023/07/11 08:25:54;;;;;;;;;4.00;4.00;;;;;31.28;31.82;100916.44;5057661;28;47458;-69
2023/07/11 08:28:19;;;;;;;;;4.00;4.00;;;;;31.32;32.27;100922.22;5076589;27;45492;-69
2023/07/11 08:30:45;;;;;;;;;5.67;5.00;;;;;31.30;32.08;100900.50;5054305;28;45868;-70
2023/07/11 08:33:10;;;;;;;;;3.67;3.33;;;;;31.34;31.71;100906.25;5077243;27;45473;-70
2023/07/11 08:35:36;;;;;;;;;4.00;4.00;;;;;31.28;31.69;100899.16;5057909;28;48779;-69
2023/07/11 08:38:03;;;;;;;;;3.33;3.00;;;;;31.35;31.68;100910.66;5082066;27;47311;-69
2023/07/11 08:40:32;;;;;;;;;5.67;5.00;;;;;31.37;32.59;100902.97;5090058;27;45515;-68
2023/07/11 08:43:03;;;;;;;;;4.67;4.67;;;;;31.33;31.61;100894.44;5066068;27;45715;-69
2023/07/11 08:45:34;;;;;;;;;3.00;3.00;;;;;31.44;31.94;100911.75;5076386;27;46598;-71
2023/07/11 08:48:13;;;;;;;;;4.00;3.00;;;;;31.37;32.23;100894.72;5081351;27;45597;-70
2023/07/11 08:51:15;;;;;;;;;3.33;3.33;;;;;31.47;31.88;100906.50;5055983;28;45277;-73
2023/07/11 08:53:46;;;;;;;;;4.00;3.00;;;;;31.25;31.92;100859.31;5072977;27;45645;-71
2023/07/11 08:56:17;;;;;;;;;4.00;4.00;;;;;31.52;31.61;100900.16;5076225;28;46075;-71
2023/07/11 08:58:43;;;;;;;;;2.67;2.67;;;;;31.59;31.21;100902.63;5073904;27;45448;-70
2023/07/11 09:01:32;;;;;;;;;3.67;2.67;;;;;31.59;31.71;100895.19;5074546;28;45365;-72
2023/07/11 09:04:00;;;;;;;;;3.33;3.33;;;;;31.60;31.70;100899.59;5058402;27;45535;-70
2023/07/11 09:06:35;;;;;;;;;3.00;1.67;;;;;31.51;32.25;100881.22;5057237;28;48201;-69
2023/07/11 09:09:01;;;;;;;;;3.00;2.67;;;;;31.43;31.67;100857.88;5075502;27;45495;-69
2023/07/11 09:11:50;;;;;;;;;3.00;3.00;;;;;31.62;31.81;100880.06;5073562;28;45417;-73
2023/07/11 09:14:31;;;;;;;;;12.00;9.00;;;;;31.62;31.70;100886.38;5074512;27;45600;-70
2023/07/11 09:17:17;;;;;;;;;7.33;7.33;;;;;31.61;31.75;100864.69;5074804;27;45435;-70
2023/07/11 09:20:01;;;;;;;;;5.00;5.00;;;;;31.59;31.87;100864.97;5074380;27;46200;-72
2023/07/11 09:22:51;;;;;;;;;4.67;4.67;;;;;31.60;32.24;100874.03;5074772;28;45388;-71
2023/07/11 09:25:28;;;;;;;;;4.67;4.33;;;;;31.52;31.97;100867.19;5076404;27;45410;-70
2023/07/11 09:28:20;;;;;;;;;4.33;3.67;;;;;31.61;32.09;100873.75;5057427;27;46672;-70
2023/07/11 09:31:01;;;;;;;;;3.33;3.33;;;;;31.62;32.24;100867.13;5058336;28;46374;-70
2023/07/11 09:33:35;;;;;;;;;6.33;4.00;;;;;31.63;31.73;100870.72;5057970;28;45482;-74
2023/07/11 09:36:03;;;;;;;;;3.00;3.00;;;;;30.91;32.06;100754.75;5072270;27;45484;-73
2023/07/11 09:38:34;;;;;;;;;5.00;5.00;;;;;31.61;31.99;100862.75;5075937;27;46161;-69
2023/07/11 09:41:29;;;;;;;;;3.33;3.33;;;;;31.53;31.70;100849.59;5057558;28;45427;-70
2023/07/11 09:43:54;;;;;;;;;5.67;4.00;;;;;31.56;31.86;100860.03;5072910;27;45496;-70
2023/07/11 09:46:25;;;;;;;;;8.33;6.00;;;;;31.54;31.89;100856.75;5076530;28;45505;-70
2023/07/11 09:48:56;;;;;;;;;4.00;4.00;;;;;31.52;31.80;100849.88;5076344;28;45689;-70
2023/07/11 09:51:36;;;;;;;;;4.00;4.00;;;;;31.51;32.25;100835.31;5076316;27;45391;-71
2023/07/11 09:54:04;;;;;;;;;3.33;3.33;;;;;31.32;32.16;100809.56;5076280;27;45223;-71
2023/07/11 09:56:43;;;;;;;;;5.00;5.00;;;;;31.47;31.99;100826.81;5057954;28;45491;-69
2023/07/11 09:59:11;;;;;;;;;4.00;4.00;;;;;31.36;32.62;100816.13;5076134;27;45558;-70
2023/07/11 10:01:37;;;;;;;;;4.67;4.67;;;;;31.38;32.14;100819.44;5076129;28;45293;-71
2023/07/11 10:04:07;;;;;;;;;4.67;3.67;;;;;31.45;32.14;100836.47;5078832;27;45312;-70
2023/07/11 10:06:52;;;;;;;;;7.00;6.00;;;;;31.30;32.75;100796.13;5080267;28;45473;-72
2023/07/11 10:09:26;;;;;;;;;6.00;4.00;;;;;31.40;32.44;100806.22;5060745;28;48471;-71
2023/07/11 10:11:56;;;;;;;;;6.00;6.00;;;;;31.46;31.90;100802.38;5079216;28;45424;-70
2023/07/11 10:14:26;;;;;;;;;7.00;4.00;;;;;31.39;31.87;100794.41;5091101;27;45385;-70
2023/07/11 10:16:54;;;;;;;;;5.67;5.67;;;;;31.47;32.00;100806.75;5100128;27;45544;-71
2023/07/11 10:19:19;;;;;;;;;4.33;3.67;;;;;31.25;31.76;100776.09;5088810;27;46427;-68
2023/07/11 10:21:50;;;;;;;;;8.67;6.00;;;;;31.41;32.26;100807.88;5079586;28;45310;-71
2023/07/11 10:24:22;;;;;;;;;4.33;4.33;;;;;31.37;31.81;100807.63;5079509;27;45513;-71
2023/07/11 10:26:54;;;;;;;;;6.00;5.00;;;;;31.36;32.17;100794.16;5060983;28;45481;-69
2023/07/11 10:29:23;;;;;;;;;9.33;6.00;;;;;31.38;32.49;100797.44;5078954;27;46207;-74
2023/07/11 10:32:30;;;;;;;;;8.33;4.00;;;;;31.36;32.41;100794.97;5060780;28;45528;-70
2023/07/11 10:34:58;;;;;;;;;3.67;2.33;;;;;31.21;31.89;100773.06;5078935;27;45414;-71
2023/07/11 10:37:33;;;;;;;;;5.00;5.00;;;;;30.83;31.92;100727.84;5078106;28;45463;-69
2023/07/11 10:40:11;;;;;;;;;4.00;4.00;;;;;31.15;32.24;100783.22;5059045;28;47862;-70
2023/07/11 10:43:14;;;;;;;;;6.67;3.67;;;;;31.16;32.32;100782.13;5076779;28;45393;-69
2023/07/11 10:45:45;;;;;;;;;5.67;5.33;;;;;31.07;31.92;100772.81;5078938;28;45474;-70
2023/07/11 10:48:20;;;;;;;;;3.67;3.67;;;;;31.14;31.75;100781.56;5079053;28;45467;-73
2023/07/11 10:50:49;;;;;;;;;7.67;4.67;;;;;31.13;31.78;100774.44;5058367;28;46284;-71
2023/07/11 10:53:28;;;;;;;;;7.67;4.33;;;;;31.05;32.05;100760.47;5058638;27;45467;-75
2023/07/11 10:56:05;;;;;;;;;5.67;4.00;;;;;31.00;32.46;100747.56;5056986;28;45419;-71
2023/07/11 10:58:31;;;;;;;;;5.33;4.33;;;;;31.07;31.91;100759.09;5062551;27;45574;-71
2023/07/11 11:01:06;;;;;;;;;5.00;3.00;;;;;31.07;31.76;100761.00;5098972;27;46297;-70
2023/07/11 11:03:44;;;;;;;;;5.00;5.00;;;;;30.99;31.62;100734.13;5097131;27;45520;-70
2023/07/11 11:06:12;;;;;;;;;6.33;4.67;;;;;31.03;31.61;100747.00;5075679;28;45451;-72
2023/07/11 11:08:53;;;;;;;;;4.33;3.67;;;;;31.04;31.73;100742.34;5060629;27;45474;-70
2023/07/11 11:11:33;;;;;;;;;9.67;7.00;;;;;31.06;32.06;100738.22;5059952;28;48088;-69
2023/07/11 11:14:09;;;;;;;;;3.00;3.00;;;;;31.02;31.52;100734.38;5078057;27;45377;-71
2023/07/11 11:16:55;;;;;;;;;5.00;5.00;;;;;31.07;30.94;100726.13;5060093;28;45414;-72
2023/07/11 11:19:34;;;;;;;;;5.33;4.00;;;;;31.05;31.36;100724.78;5076659;27;45569;-79
2023/07/11 11:22:11;;;;;;;;;3.67;3.67;;;;;31.00;31.31;100717.34;5060846;27;48537;-70
2023/07/11 11:24:59;;;;;;;;;4.00;4.00;;;;;30.96;31.83;100705.31;5060115;28;45375;-72
2023/07/11 11:27:50;;;;;;;;;3.33;3.33;;;;;31.07;31.71;100728.88;5060325;28;45423;-70
2023/07/11 11:30:24;;;;;;;;;4.00;4.00;;;;;31.09;31.35;100721.19;5078607;27;45223;-70